Time;durP1;ratioP1;P1;durP2;ratioP2;P2;SDS_P1;SDS_P2;PMS_P1;PMS_P2;Temp;Humidity;BMP_temperature;BMP_pressure;BME280_temperature;BME280_humidity;BME280_pressure;Samples;Min_cycle;Max_cycle;Signal;HPM_P1;HPM_P2
2022/05/15 00:00:52;;;;;;;13.13;8.50;;;13.50;99.90;;;;;;5208154;28;20045;-72
2022/05/15 00:03:42;;;;;;;11.85;7.55;;;13.30;99.90;;;;;;5208659;28;20045;-72
2022/05/15 00:06:15;;;;;;;13.38;7.78;;;13.30;99.90;;;;;;5206539;28;20048;-71
2022/05/15 00:08:47;;;;;;;11.60;7.47;;;13.30;99.90;;;;;;5208738;28;20045;-72
2022/05/15 00:11:20;;;;;;;12.32;8.05;;;13.30;99.90;;;;;;5208587;28;20485;-70
2022/05/15 00:13:52;;;;;;;12.18;8.20;;;13.30;99.90;;;;;;5209352;28;20635;-72
2022/05/15 00:16:25;;;;;;;14.93;7.72;;;13.20;99.90;;;;;;5209149;28;20037;-71
2022/05/15 00:18:59;;;;;;;12.30;7.85;;;13.10;99.90;;;;;;5204873;28;20052;-72
2022/05/15 00:21:32;;;;;;;16.88;8.55;;;13.10;99.90;;;;;;5206809;28;20091;-72
2022/05/15 00:24:06;;;;;;;14.25;8.05;;;13.10;99.90;;;;;;5209681;28;20045;-72
2022/05/15 00:26:38;;;;;;;20.65;8.57;;;13.00;99.90;;;;;;5209074;28;20049;-72
2022/05/15 00:29:11;;;;;;;14.07;7.90;;;13.00;99.90;;;;;;5206452;28;20056;-70
2022/05/15 00:31:44;;;;;;;12.52;8.02;;;12.90;99.90;;;;;;5207931;28;20138;-71
2022/05/15 00:34:17;;;;;;;13.73;8.23;;;12.80;99.90;;;;;;5202878;28;20686;-71
2022/05/15 00:36:50;;;;;;;19.23;8.35;;;12.70;99.90;;;;;;5206438;28;20048;-71
2022/05/15 00:39:23;;;;;;;11.63;7.90;;;12.80;99.90;;;;;;5227205;28;20041;-72
2022/05/15 00:41:55;;;;;;;9.18;7.25;;;12.80;99.90;;;;;;5208124;28;20056;-71
2022/05/15 00:44:28;;;;;;;16.83;8.23;;;12.90;99.90;;;;;;5208894;28;20053;-71
2022/05/15 00:47:00;;;;;;;10.95;8.10;;;12.90;99.90;;;;;;5208304;28;20053;-71
2022/05/15 00:49:34;;;;;;;15.95;8.18;;;12.90;99.90;;;;;;5202650;28;20048;-70
2022/05/15 00:52:13;;;;;;;15.23;9.23;;;12.90;99.90;;;;;;5209440;28;20247;-71
2022/05/15 00:54:55;;;;;;;11.48;8.00;;;12.80;99.90;;;;;;5209281;28;20050;-71
2022/05/15 00:57:50;;;;;;;15.90;7.78;;;12.80;99.90;;;;;;5209502;28;20629;-72
2022/05/15 01:00:28;;;;;;;11.10;7.88;;;12.90;99.90;;;;;;5222336;28;20429;-71
2022/05/15 01:03:17;;;;;;;12.93;7.97;;;12.90;99.90;;;;;;5204642;28;20056;-72
2022/05/15 01:05:52;;;;;;;10.45;6.95;;;12.80;99.90;;;;;;5206305;28;20053;-70
2022/05/15 01:08:29;;;;;;;11.85;8.40;;;12.70;99.90;;;;;;5208339;28;20057;-72
2022/05/15 01:11:10;;;;;;;13.38;8.68;;;12.60;99.90;;;;;;5223900;28;20049;-71
2022/05/15 01:13:46;;;;;;;9.73;7.85;;;12.60;99.90;;;;;;5207863;28;20048;-71
2022/05/15 01:16:22;;;;;;;12.77;8.30;;;12.50;99.90;;;;;;5206923;28;20669;-70
2022/05/15 01:18:57;;;;;;;15.35;9.32;;;12.40;99.90;;;;;;5204375;28;20045;-70
2022/05/15 01:21:33;;;;;;;11.20;8.68;;;12.40;99.90;;;;;;5207190;28;20469;-71
2022/05/15 01:24:08;;;;;;;10.82;8.50;;;12.40;99.90;;;;;;5224363;28;20048;-72
2022/05/15 01:26:41;;;;;;;14.35;8.90;;;12.30;99.90;;;;;;5206655;28;20558;-71
2022/05/15 01:29:17;;;;;;;12.07;8.45;;;12.30;99.90;;;;;;5208181;28;20041;-71
2022/05/15 01:31:52;;;;;;;16.05;8.85;;;12.30;99.90;;;;;;5208341;28;20484;-72
2022/05/15 01:34:25;;;;;;;12.88;8.00;;;12.40;99.90;;;;;;5205782;28;20052;-69
2022/05/15 01:36:59;;;;;;;14.95;8.43;;;12.40;99.90;;;;;;5194871;28;20083;-71
2022/05/15 01:39:32;;;;;;;14.75;8.52;;;12.30;99.90;;;;;;5197412;28;20049;-72
2022/05/15 01:42:06;;;;;;;12.50;7.85;;;12.30;99.90;;;;;;5208762;28;20528;-71
2022/05/15 01:44:39;;;;;;;11.90;8.10;;;12.20;99.90;;;;;;5209053;28;20593;-70
2022/05/15 01:47:12;;;;;;;10.02;7.93;;;12.30;99.90;;;;;;5208260;28;20037;-70
2022/05/15 01:49:44;;;;;;;13.85;8.50;;;12.30;99.90;;;;;;5203928;28;20056;-70
2022/05/15 01:52:17;;;;;;;16.52;8.65;;;12.40;99.90;;;;;;5212323;28;20376;-71
2022/05/15 01:54:49;;;;;;;9.82;7.70;;;12.30;99.90;;;;;;5210023;28;20094;-71
2022/05/15 01:57:22;;;;;;;12.75;8.32;;;12.20;99.90;;;;;;5211026;28;20052;-71
2022/05/15 01:59:54;;;;;;;12.00;8.23;;;12.10;99.90;;;;;;5207393;28;20048;-72
2022/05/15 02:02:27;;;;;;;11.88;7.75;;;12.10;99.90;;;;;;5224246;28;20075;-71
2022/05/15 02:04:59;;;;;;;12.07;8.20;;;12.00;99.90;;;;;;5210212;28;20053;-70
2022/05/15 02:07:32;;;;;;;15.48;7.68;;;12.00;99.90;;;;;;5209606;28;20049;-70
2022/05/15 02:10:06;;;;;;;11.93;6.82;;;12.00;99.90;;;;;;5206368;28;20536;-70
2022/05/15 02:12:39;;;;;;;13.43;7.70;;;12.00;99.90;;;;;;5204976;28;20059;-70
2022/05/15 02:15:13;;;;;;;13.30;7.88;;;12.00;99.90;;;;;;5204963;28;20577;-72
2022/05/15 02:17:46;;;;;;;14.38;7.65;;;11.90;99.90;;;;;;5223148;28;20041;-71
2022/05/15 02:20:19;;;;;;;10.32;7.97;;;11.80;99.90;;;;;;5208701;28;20045;-71
2022/05/15 02:22:52;;;;;;;10.90;7.30;;;11.80;99.90;;;;;;5201263;28;20052;-72
2022/05/15 02:25:27;;;;;;;12.63;8.43;;;11.80;99.90;;;;;;5223987;28;20060;-71
2022/05/15 02:28:00;;;;;;;12.48;8.57;;;11.80;99.90;;;;;;5205153;28;20500;-72
2022/05/15 02:30:33;;;;;;;12.40;9.80;;;11.70;99.90;;;;;;5215377;28;20049;-71
2022/05/15 02:33:06;;;;;;;12.57;9.35;;;11.60;99.90;;;;;;5202168;28;20389;-72
2022/05/15 02:35:39;;;;;;;16.03;9.27;;;11.40;99.90;;;;;;5216774;28;20056;-71
2022/05/15 02:38:12;;;;;;;14.88;8.88;;;11.40;99.90;;;;;;5218435;28;20791;-71
2022/05/15 02:40:45;;;;;;;;;;;11.30;99.90;;;;;;5217224;28;20036;-72
2022/05/15 02:43:18;;;;;;;17.70;8.98;;;11.20;99.90;;;;;;5203369;28;20032;-71
2022/05/15 02:45:50;;;;;;;16.10;9.00;;;11.20;99.90;;;;;;5205091;28;20520;-71
2022/05/15 02:51:15;;;;;;;10.77;8.55;;;11.10;99.90;;;;;;5206928;28;20047;-72
2022/05/15 02:53:47;;;;;;;13.32;8.30;;;11.30;99.90;;;;;;5228783;28;20057;-71
2022/05/15 02:56:24;;;;;;;18.08;9.00;;;11.40;99.90;;;;;;5227841;28;20048;-70
2022/05/15 02:58:57;;;;;;;11.10;7.65;;;11.40;99.90;;;;;;5207590;28;20490;-71
2022/05/15 03:01:31;;;;;;;;;;;11.30;99.90;;;;;;5181057;28;20041;-70
2022/05/15 03:04:04;;;;;;;14.98;8.27;;;11.10;99.90;;;;;;5210832;28;19924;-71
2022/05/15 03:06:37;;;;;;;;;;;11.10;99.90;;;;;;5212387;28;20052;-70
2022/05/15 03:09:09;;;;;;;15.68;8.65;;;10.90;99.90;;;;;;5207585;28;19948;-71
2022/05/15 03:11:41;;;;;;;11.93;7.82;;;10.90;99.90;;;;;;5204189;28;20063;-71
2022/05/15 03:14:14;;;;;;;9.52;7.93;;;11.00;99.90;;;;;;5202837;28;20045;-70
2022/05/15 03:16:47;;;;;;;14.75;8.43;;;10.90;99.90;;;;;;5209262;28;20037;-71
2022/05/15 03:19:19;;;;;;;12.93;8.97;;;11.00;99.90;;;;;;5207688;28;20041;-71
2022/05/15 03:21:53;;;;;;;16.13;8.75;;;10.90;99.90;;;;;;5207044;28;20046;-71
2022/05/15 03:24:26;;;;;;;21.02;9.43;;;10.80;99.90;;;;;;5191234;28;20051;-71
2022/05/15 03:26:58;;;;;;;12.20;8.52;;;10.70;99.90;;;;;;5209636;28;20049;-72
2022/05/15 03:29:31;;;;;;;12.33;8.00;;;10.80;99.90;;;;;;5206591;28;20061;-71
2022/05/15 03:32:04;;;;;;;11.75;8.73;;;10.90;99.90;;;;;;5207600;28;20059;-72
2022/05/15 03:34:37;;;;;;;13.27;8.37;;;10.80;99.90;;;;;;5202738;28;20057;-71
2022/05/15 03:37:12;;;;;;;12.07;8.60;;;10.90;99.90;;;;;;5205102;28;20318;-72
2022/05/15 03:39:45;;;;;;;14.33;8.00;;;10.90;99.90;;;;;;5208249;28;21320;-71
2022/05/15 03:42:17;;;;;;;13.77;8.90;;;10.90;99.90;;;;;;5208358;28;20513;-71
2022/05/15 03:44:49;;;;;;;15.55;8.40;;;10.90;99.90;;;;;;5205455;28;20052;-71
2022/05/15 03:47:22;;;;;;;12.48;8.85;;;10.90;99.90;;;;;;5209160;28;20068;-72
2022/05/15 03:49:54;;;;;;;12.80;7.95;;;10.80;99.90;;;;;;5207832;28;20045;-72
2022/05/15 03:52:27;;;;;;;12.23;8.40;;;10.90;99.90;;;;;;5209665;28;20052;-72
2022/05/15 03:54:59;;;;;;;21.52;8.82;;;11.00;99.90;;;;;;5205788;28;20101;-71
2022/05/15 03:57:32;;;;;;;12.65;9.40;;;11.10;99.90;;;;;;5205291;28;20049;-70
2022/05/15 04:00:11;;;;;;;11.30;8.75;;;11.00;99.90;;;;;;5208450;28;20037;-72
2022/05/15 04:02:45;;;;;;;10.45;8.23;;;11.00;99.90;;;;;;5208976;28;20045;-70
2022/05/15 04:05:18;;;;;;;11.35;8.00;;;11.10;99.90;;;;;;5210400;28;20052;-70
2022/05/15 04:07:50;;;;;;;9.82;7.68;;;11.10;99.90;;;;;;5218299;28;20053;-71
2022/05/15 04:10:24;;;;;;;12.77;8.80;;;11.20;99.90;;;;;;5223316;28;20045;-70
2022/05/15 04:12:57;;;;;;;11.90;7.88;;;11.20;99.90;;;;;;5205061;28;20045;-72
2022/05/15 04:15:30;;;;;;;12.25;8.40;;;11.20;99.90;;;;;;5207173;28;20082;-71
2022/05/15 04:18:04;;;;;;;14.68;8.65;;;11.20;99.90;;;;;;5211045;28;20513;-71
2022/05/15 04:20:38;;;;;;;16.55;8.75;;;11.30;99.90;;;;;;5219762;28;20052;-70
2022/05/15 04:23:10;;;;;;;12.83;8.53;;;11.20;99.90;;;;;;5210721;28;20037;-71
2022/05/15 04:25:43;;;;;;;12.40;8.68;;;11.10;99.90;;;;;;5204298;28;20504;-71
2022/05/15 04:28:16;;;;;;;12.40;9.03;;;11.10;99.90;;;;;;5203571;28;20049;-71
2022/05/15 04:30:49;;;;;;;12.35;7.95;;;11.10;99.90;;;;;;5209728;28;20053;-71
2022/05/15 04:33:21;;;;;;;10.70;9.05;;;11.20;99.90;;;;;;5207492;28;20049;-70
2022/05/15 04:35:53;;;;;;;12.38;8.30;;;11.20;99.90;;;;;;5208114;28;20053;-69
2022/05/15 04:38:26;;;;;;;10.82;8.05;;;11.20;99.90;;;;;;5217342;28;20571;-71
2022/05/15 04:40:59;;;;;;;13.43;8.52;;;11.30;99.90;;;;;;5207521;28;21086;-72
2022/05/15 04:43:32;;;;;;;13.27;8.68;;;11.30;99.90;;;;;;5211903;28;20511;-71
2022/05/15 04:46:07;;;;;;;12.57;8.23;;;11.50;99.90;;;;;;5206057;28;20049;-71
2022/05/15 04:48:40;;;;;;;11.18;8.50;;;11.50;99.90;;;;;;5209267;28;20049;-71
2022/05/15 04:51:12;;;;;;;9.85;8.43;;;11.60;99.90;;;;;;5208234;28;20060;-69
2022/05/15 04:53:45;;;;;;;11.48;8.13;;;11.70;99.90;;;;;;5209504;28;20048;-71
2022/05/15 04:56:18;;;;;;;8.98;7.97;;;11.80;99.90;;;;;;5206940;28;20044;-71
2022/05/15 04:58:51;;;;;;;10.33;7.30;;;11.90;99.90;;;;;;5208462;28;20033;-71
2022/05/15 05:01:25;;;;;;;13.95;8.07;;;12.00;99.90;;;;;;5208635;28;20057;-72
2022/05/15 05:03:58;;;;;;;9.40;7.13;;;12.00;99.90;;;;;;5209865;28;20412;-70
2022/05/15 05:06:31;;;;;;;18.30;8.27;;;12.10;99.90;;;;;;5211528;28;20056;-70
2022/05/15 05:09:03;;;;;;;10.63;7.85;;;12.30;99.90;;;;;;5204476;28;20303;-72
2022/05/15 05:11:36;;;;;;;12.48;7.88;;;12.40;99.90;;;;;;5207120;28;20046;-71
2022/05/15 05:14:08;;;;;;;10.45;7.95;;;12.40;99.90;;;;;;5208687;28;20148;-72
2022/05/15 05:16:41;;;;;;;11.48;8.07;;;12.50;99.90;;;;;;5207659;28;20351;-72
2022/05/15 05:19:13;;;;;;;12.25;7.72;;;12.50;99.90;;;;;;5206511;28;20794;-71
2022/05/15 05:21:46;;;;;;;12.48;8.10;;;12.60;99.90;;;;;;5224988;28;20055;-72
2022/05/15 05:24:19;;;;;;;9.93;7.32;;;12.80;99.90;;;;;;5207856;28;20041;-71
2022/05/15 05:26:52;;;;;;;12.77;7.90;;;12.90;99.90;;;;;;5209714;28;20456;-71
2022/05/15 05:29:25;;;;;;;10.95;7.55;;;13.10;99.90;;;;;;5206228;28;20617;-71
2022/05/15 05:31:57;;;;;;;12.73;8.10;;;13.20;99.90;;;;;;5206174;28;20057;-71
2022/05/15 05:34:30;;;;;;;12.93;7.27;;;13.30;99.90;;;;;;5209436;28;20049;-71
2022/05/15 05:37:03;;;;;;;12.55;6.95;;;13.50;99.90;;;;;;5206802;28;20627;-71
2022/05/15 05:39:35;;;;;;;10.70;7.77;;;13.60;99.90;;;;;;5209160;28;20052;-71
2022/05/15 05:42:08;;;;;;;9.35;7.28;;;13.70;99.90;;;;;;5206158;28;20053;-70
2022/05/15 05:44:40;;;;;;;9.23;7.13;;;13.80;99.90;;;;;;5211407;28;20056;-70
2022/05/15 05:47:13;;;;;;;11.90;7.18;;;13.90;99.90;;;;;;5211168;28;20045;-71
2022/05/15 05:49:46;;;;;;;12.73;7.47;;;14.10;99.90;;;;;;5200455;28;20055;-70
2022/05/15 05:52:19;;;;;;;11.30;6.97;;;14.20;99.90;;;;;;5208042;28;20722;-70
2022/05/15 05:54:52;;;;;;;8.15;6.95;;;14.30;99.90;;;;;;5203173;28;20048;-70
2022/05/15 05:57:25;;;;;;;11.02;6.95;;;14.50;99.90;;;;;;5214514;28;20048;-72
2022/05/15 05:59:57;;;;;;;9.00;6.75;;;14.70;99.90;;;;;;5209190;28;20528;-71
2022/05/15 06:02:30;;;;;;;10.57;7.30;;;14.90;99.90;;;;;;5208376;28;20041;-71
2022/05/15 06:05:03;;;;;;;10.32;7.20;;;15.00;99.90;;;;;;5209101;28;20049;-70
2022/05/15 06:07:37;;;;;;;7.47;6.55;;;15.20;99.90;;;;;;5209437;28;20692;-71
2022/05/15 06:10:11;;;;;;;;;;;15.30;99.90;;;;;;5207446;28;20056;-71
2022/05/15 06:12:44;;;;;;;9.40;6.43;;;15.50;99.90;;;;;;5210262;28;19932;-71
2022/05/15 06:15:17;;;;;;;12.13;7.10;;;15.60;99.90;;;;;;5212787;28;20057;-71
2022/05/15 06:17:50;;;;;;;12.60;6.63;;;15.80;99.90;;;;;;5225369;28;20049;-72
2022/05/15 06:20:22;;;;;;;10.45;6.75;;;15.90;99.90;;;;;;5212804;28;20049;-71
2022/05/15 06:22:55;;;;;;;11.50;5.78;;;16.10;99.90;;;;;;5207794;28;20511;-71
2022/05/15 06:25:27;;;;;;;13.52;7.00;;;16.20;99.90;;;;;;5214995;28;20052;-71
2022/05/15 06:28:00;;;;;;;13.95;5.88;;;16.40;99.90;;;;;;5212194;28;20045;-71
2022/05/15 06:30:32;;;;;;;7.95;6.15;;;16.60;99.60;;;;;;5215171;28;20041;-71
2022/05/15 06:33:05;;;;;;;12.63;6.97;;;16.70;98.00;;;;;;5211436;28;20488;-71
2022/05/15 06:35:38;;;;;;;9.80;6.55;;;16.80;97.10;;;;;;5206190;28;20052;-71
2022/05/15 06:38:10;;;;;;;10.23;6.45;;;17.00;95.70;;;;;;5204588;28;20333;-71
2022/05/15 06:40:44;;;;;;;13.05;7.35;;;17.20;93.50;;;;;;5211685;28;20045;-71
2022/05/15 06:43:16;;;;;;;;;;;17.30;92.60;;;;;;5212060;28;20044;-71
2022/05/15 06:45:49;;;;;;;12.32;7.05;;;17.50;91.90;;;;;;5207129;28;19940;-70
2022/05/15 06:48:21;;;;;;;13.82;8.15;;;17.60;92.70;;;;;;5208760;28;21368;-71
2022/05/15 06:50:53;;;;;;;11.40;6.28;;;17.70;92.60;;;;;;5210333;28;20495;-71
2022/05/15 06:53:26;;;;;;;10.10;7.13;;;17.90;92.70;;;;;;5205482;28;20053;-71
2022/05/15 06:58:50;;;;;;;12.07;7.18;;;18.00;90.60;;;;;;5207528;28;20045;-71
2022/05/15 07:01:22;;;;;;;15.60;7.10;;;18.10;88.90;;;;;;5209671;28;20385;-71
2022/05/15 07:03:55;;;;;;;12.07;6.78;;;18.10;87.70;;;;;;5202981;28;20041;-71
2022/05/15 07:06:28;;;;;;;12.27;7.40;;;18.30;87.00;;;;;;5202915;28;20041;-70
2022/05/15 07:09:00;;;;;;;13.05;7.13;;;18.40;85.90;;;;;;5206880;28;20053;-71
2022/05/15 07:11:33;;;;;;;9.82;6.43;;;18.60;85.00;;;;;;5205909;28;20045;-71
2022/05/15 07:14:05;;;;;;;12.18;6.32;;;18.70;85.40;;;;;;5210718;28;20045;-71
2022/05/15 07:16:40;;;;;;;10.38;6.38;;;18.80;84.80;;;;;;5209963;28;20766;-71
2022/05/15 07:19:12;;;;;;;8.07;6.05;;;18.90;82.90;;;;;;5209141;28;20049;-70
2022/05/15 07:21:45;;;;;;;10.50;6.05;;;19.00;83.70;;;;;;5207578;28;20053;-71
2022/05/15 07:24:17;;;;;;;11.63;6.47;;;19.20;83.50;;;;;;5209814;28;20048;-71
2022/05/15 07:26:50;;;;;;;13.73;6.82;;;19.30;83.40;;;;;;5212383;28;20045;-71
2022/05/15 07:29:24;;;;;;;7.57;5.55;;;19.50;83.10;;;;;;5205955;28;20045;-70
2022/05/15 07:31:57;;;;;;;15.77;6.00;;;19.70;82.10;;;;;;5203071;28;20053;-71
2022/05/15 07:34:30;;;;;;;10.43;6.10;;;19.90;81.70;;;;;;5207152;28;20389;-72
2022/05/15 07:37:03;;;;;;;7.22;6.00;;;20.10;81.30;;;;;;5209952;28;20719;-71
2022/05/15 07:39:36;;;;;;;10.10;6.30;;;20.20;79.90;;;;;;5208336;28;20046;-72
2022/05/15 07:42:10;;;;;;;10.60;5.82;;;20.20;78.90;;;;;;5210024;28;20049;-72
2022/05/15 07:44:43;;;;;;;7.90;5.18;;;20.30;76.80;;;;;;5211818;28;20045;-71
2022/05/15 07:47:15;;;;;;;10.30;5.03;;;20.40;75.20;;;;;;5190969;28;20135;-71
2022/05/15 07:49:49;;;;;;;7.32;4.70;;;20.40;75.00;;;;;;5206963;28;20086;-70
2022/05/15 07:52:22;;;;;;;8.55;4.20;;;20.50;74.10;;;;;;5211990;28;20053;-71
2022/05/15 07:54:55;;;;;;;6.05;4.18;;;20.60;73.80;;;;;;5208761;28;20053;-72
2022/05/15 07:57:27;;;;;;;9.10;4.93;;;20.80;72.80;;;;;;5205713;28;20057;-72
2022/05/15 08:00:03;;;;;;;14.43;4.68;;;21.00;71.20;;;;;;5201835;28;20422;-71
2022/05/15 08:02:44;;;;;;;6.82;4.97;;;21.20;71.80;;;;;;5205685;28;21077;-71
2022/05/15 08:08:12;;;;;;;9.32;4.60;;;21.20;72.20;;;;;;5208816;28;20044;-72
2022/05/15 08:10:46;;;;;;;10.05;5.07;;;21.40;71.70;;;;;;5211548;28;20049;-71
2022/05/15 08:13:22;;;;;;;8.02;5.13;;;21.50;71.00;;;;;;5208042;28;20386;-72
2022/05/15 08:15:55;;;;;;;9.18;4.22;;;21.70;69.80;;;;;;5210061;28;20049;-71
2022/05/15 08:24:10;;;;;;;7.65;4.70;;;21.80;69.30;;;;;;5208171;28;20052;-72
2022/05/15 08:26:44;;;;;;;9.38;4.18;;;22.00;69.50;;;;;;5207728;28;20068;-72
2022/05/15 08:29:18;;;;;;;7.65;4.32;;;22.00;70.00;;;;;;5207599;28;20033;-71
2022/05/15 08:31:50;;;;;;;7.28;4.40;;;22.10;69.10;;;;;;5208034;28;20049;-72
2022/05/15 08:34:23;;;;;;;4.03;3.53;;;22.10;68.10;;;;;;5207519;28;20631;-72
2022/05/15 08:36:55;;;;;;;6.88;3.45;;;22.20;64.90;;;;;;5201742;28;20049;-72
2022/05/15 08:39:29;;;;;;;5.68;3.53;;;22.20;64.80;;;;;;5206591;28;20484;-72
2022/05/15 08:42:08;;;;;;;7.43;3.80;;;22.30;62.90;;;;;;5204289;28;20048;-72
2022/05/15 08:44:46;;;;;;;6.78;3.63;;;22.30;62.00;;;;;;5205463;28;20420;-72
2022/05/15 08:47:45;;;;;;;6.00;3.50;;;22.20;61.60;;;;;;5209779;28;20437;-72
2022/05/15 08:50:21;;;;;;;5.43;3.10;;;22.30;61.10;;;;;;5208630;28;20042;-71
2022/05/15 08:53:14;;;;;;;8.23;2.90;;;22.40;62.50;;;;;;5207766;28;20052;-71
2022/05/15 08:55:57;;;;;;;7.03;2.90;;;22.40;58.50;;;;;;5208143;28;20049;-71
2022/05/15 08:58:37;;;;;;;2.75;2.05;;;22.50;58.60;;;;;;5207752;28;20044;-71
2022/05/15 09:01:13;;;;;;;3.20;2.42;;;22.60;57.00;;;;;;5208142;28;20053;-72
2022/05/15 09:03:48;;;;;;;4.45;2.85;;;22.50;57.10;;;;;;5206743;28;20041;-72
2022/05/15 09:06:37;;;;;;;4.78;3.17;;;22.50;56.30;;;;;;5209234;28;20057;-71
2022/05/15 09:09:31;;;;;;;7.15;3.60;;;22.50;57.30;;;;;;5197860;28;20535;-72
2022/05/15 09:12:19;;;;;;;6.72;3.78;;;22.50;57.80;;;;;;5207555;28;20520;-70
2022/05/15 09:15:04;;;;;;;5.25;3.25;;;22.50;57.10;;;;;;5208414;28;20053;-70
2022/05/15 09:18:03;;;;;;;6.80;2.97;;;22.50;56.70;;;;;;5209647;28;20056;-72
2022/05/15 09:21:03;;;;;;;6.50;3.10;;;22.50;55.70;;;;;;5207387;28;20790;-72
2022/05/15 09:23:45;;;;;;;5.30;2.85;;;22.50;56.90;;;;;;5210712;28;20306;-71
2022/05/15 09:26:28;;;;;;;6.93;3.35;;;22.50;56.60;;;;;;5201629;28;20639;-71
2022/05/15 09:29:02;;;;;;;5.10;2.97;;;22.60;56.20;;;;;;5199277;28;21220;-72
2022/05/15 09:31:35;;;;;;;5.10;2.80;;;22.60;55.60;;;;;;5209347;28;20530;-71
2022/05/15 09:34:32;;;;;;;7.18;2.95;;;22.60;56.00;;;;;;5209713;28;20072;-72
2022/05/15 09:40:07;;;;;;;4.80;3.25;;;22.60;57.20;;;;;;5210314;28;20052;-71
2022/05/15 09:45:55;;;;;;;7.20;3.78;;;22.70;57.10;;;;;;5207495;28;20048;-72
2022/05/15 09:48:38;;;;;;;5.75;3.40;;;22.80;56.40;;;;;;5205525;28;20477;-72
2022/05/15 09:51:12;;;;;;;11.32;4.00;;;22.90;59.70;;;;;;5207108;28;20048;-71
2022/05/15 09:53:50;;;;;;;6.00;3.78;;;23.00;61.60;;;;;;5208507;28;20056;-72
2022/05/15 09:56:29;;;;;;;6.65;3.92;;;23.00;61.90;;;;;;5206379;28;20476;-71
2022/05/15 09:59:05;;;;;;;4.55;3.60;;;23.10;61.60;;;;;;5206810;28;20512;-72
2022/05/15 10:01:56;;;;;;;7.00;3.28;;;23.20;62.30;;;;;;5208965;28;20045;-70
2022/05/15 10:04:39;;;;;;;6.57;4.00;;;23.30;61.80;;;;;;5197232;28;20049;-70
2022/05/15 10:07:44;;;;;;;6.90;3.90;;;23.40;61.40;;;;;;5202130;28;20052;-71
2022/05/15 10:10:22;;;;;;;6.00;3.75;;;23.40;60.30;;;;;;5207822;28;20064;-70
2022/05/15 10:13:03;;;;;;;4.72;3.83;;;23.50;60.10;;;;;;5210555;28;20049;-70
2022/05/15 10:15:41;;;;;;;5.90;4.60;;;23.50;61.60;;;;;;5208031;28;20060;-70
2022/05/15 10:18:19;;;;;;;8.48;3.90;;;23.60;60.30;;;;;;5191936;28;20052;-71
2022/05/15 10:20:53;;;;;;;9.23;4.13;;;23.70;60.90;;;;;;5206427;28;20520;-70
2022/05/15 10:23:29;;;;;;;6.55;4.20;;;23.80;60.30;;;;;;5206005;28;20830;-72
2022/05/15 10:26:08;;;;;;;11.25;4.50;;;24.20;60.60;;;;;;5208611;28;20049;-72
2022/05/15 10:29:16;;;;;;;5.03;3.60;;;24.50;60.10;;;;;;5221032;28;20389;-71
2022/05/15 10:31:56;;;;;;;5.70;4.00;;;24.90;58.20;;;;;;5206042;28;20053;-71
2022/05/15 10:34:31;;;;;;;8.60;4.30;;;25.00;58.60;;;;;;5203226;28;20045;-71
2022/05/15 10:37:17;;;;;;;6.55;3.70;;;25.20;58.40;;;;;;5205271;28;20057;-71
2022/05/15 10:40:35;;;;;;;10.98;3.97;;;25.40;59.10;;;;;;5212276;28;20511;-71
2022/05/15 10:43:30;;;;;;;7.63;3.85;;;25.60;58.10;;;;;;5206882;28;20100;-71
2022/05/15 10:46:39;;;;;;;6.30;3.95;;;25.80;57.10;;;;;;5205670;28;20049;-72
2022/05/15 10:49:20;;;;;;;6.75;4.22;;;25.90;55.50;;;;;;5205509;28;20053;-72
2022/05/15 10:52:30;;;;;;;7.68;4.35;;;26.10;56.20;;;;;;5209184;28;20433;-71
2022/05/15 10:58:28;;;;;;;6.60;3.67;;;26.20;54.90;;;;;;5207898;28;21379;-72
2022/05/15 11:01:00;;;;;;;;;;;26.40;57.00;;;;;;5197798;28;20064;-72
2022/05/15 11:03:50;;;;;;;12.13;3.85;;;26.70;55.00;;;;;;5207889;28;19931;-71
2022/05/15 11:06:47;;;;;;;9.30;3.47;;;26.90;54.30;;;;;;5205617;28;20044;-72
2022/05/15 11:09:32;;;;;;;5.00;3.40;;;27.00;55.00;;;;;;5207917;28;20041;-71
2022/05/15 11:12:29;;;;;;;6.60;3.58;;;27.20;54.50;;;;;;5208841;28;20049;-71
2022/05/15 11:15:08;;;;;;;7.43;3.63;;;27.10;52.50;;;;;;5206475;28;20049;-72
2022/05/15 11:17:57;;;;;;;4.88;3.20;;;27.30;54.10;;;;;;5203596;28;20057;-72
2022/05/15 11:20:43;;;;;;;7.05;3.95;;;27.40;53.90;;;;;;5203240;28;20063;-70
2022/05/15 11:23:42;;;;;;;9.23;3.95;;;27.80;51.20;;;;;;5204668;28;20037;-71
2022/05/15 11:26:25;;;;;;;9.82;4.25;;;27.60;52.80;;;;;;5209704;28;20037;-72
2022/05/15 11:29:03;;;;;;;8.32;4.38;;;27.90;52.80;;;;;;5209562;28;20528;-72
2022/05/15 11:31:42;;;;;;;6.00;3.33;;;27.90;52.40;;;;;;5211442;28;20041;-71
2022/05/15 11:34:14;;;;;;;6.97;3.80;;;28.00;52.70;;;;;;5207752;28;20052;-71
2022/05/15 11:36:50;;;;;;;5.15;3.33;;;28.20;51.40;;;;;;5204184;28;20049;-71
2022/05/15 11:39:25;;;;;;;5.50;3.17;;;28.00;51.90;;;;;;5226875;28;20033;-71
2022/05/15 11:42:09;;;;;;;7.68;3.30;;;28.10;52.90;;;;;;5205942;28;20037;-72
2022/05/15 11:44:46;;;;;;;6.45;3.33;;;28.20;51.20;;;;;;5204434;28;20666;-72
2022/05/15 11:47:29;;;;;;;8.35;3.88;;;28.30;50.00;;;;;;5204312;28;20524;-72
2022/05/15 11:50:10;;;;;;;;;;;28.30;49.70;;;;;;5206091;28;20052;-72
2022/05/15 11:52:54;;;;;;;5.85;3.38;;;28.30;50.40;;;;;;5203341;28;19921;-73
2022/05/15 11:55:42;;;;;;;4.80;3.00;;;28.50;49.60;;;;;;5205284;28;20045;-71
2022/05/15 11:58:20;;;;;;;5.15;3.42;;;28.50;49.10;;;;;;5204494;28;20056;-72
2022/05/15 12:01:24;;;;;;;6.72;3.00;;;28.70;49.80;;;;;;5203902;28;20041;-73
2022/05/15 12:03:59;;;;;;;8.63;3.05;;;28.80;47.20;;;;;;5207849;28;20045;-73
2022/05/15 12:07:09;;;;;;;5.97;3.38;;;29.10;48.60;;;;;;5204739;28;20052;-73
2022/05/15 12:09:44;;;;;;;6.15;3.15;;;29.00;47.40;;;;;;5206380;28;20596;-72
2022/05/15 12:12:23;;;;;;;6.43;3.20;;;29.10;48.60;;;;;;5205205;28;20060;-72
2022/05/15 12:15:37;;;;;;;9.55;3.72;;;29.20;47.40;;;;;;5205909;28;20064;-73
2022/05/15 12:18:29;;;;;;;5.80;2.97;;;29.20;47.30;;;;;;5166426;28;20054;-72
2022/05/15 12:21:06;;;;;;;5.80;3.17;;;29.60;48.50;;;;;;5204938;28;20041;-73
2022/05/15 12:27:07;;;;;;;8.60;3.00;;;29.70;46.50;;;;;;5202841;28;20045;-72
2022/05/15 12:29:43;;;;;;;6.55;2.92;;;29.50;45.10;;;;;;5204694;28;20076;-71
2022/05/15 12:32:20;;;;;;;7.95;3.33;;;29.50;47.30;;;;;;5221449;28;20049;-71
2022/05/15 12:34:54;;;;;;;4.55;3.00;;;29.60;46.40;;;;;;5202348;28;20044;-71
2022/05/15 12:37:31;;;;;;;4.85;2.78;;;29.70;47.40;;;;;;5200733;28;20583;-71
2022/05/15 12:40:03;;;;;;;11.93;2.88;;;29.80;47.40;;;;;;5199638;28;20583;-71
2022/05/15 12:42:42;;;;;;;4.40;2.90;;;29.80;46.60;;;;;;5222123;28;20060;-72
2022/05/15 12:45:20;;;;;;;3.53;2.67;;;30.10;45.90;;;;;;5203013;28;20045;-72
2022/05/15 12:48:10;;;;;;;7.28;3.30;;;30.00;45.90;;;;;;5207923;28;20056;-71
2022/05/15 12:51:07;;;;;;;7.32;3.05;;;30.00;44.40;;;;;;5208850;28;20061;-71
2022/05/15 12:53:45;;;;;;;6.90;3.00;;;29.80;45.00;;;;;;5208903;28;20056;-72
2022/05/15 12:56:31;;;;;;;7.97;3.25;;;29.60;46.40;;;;;;5205661;28;20055;-72
2022/05/15 12:59:13;;;;;;;4.32;2.83;;;29.80;45.90;;;;;;5203394;28;20041;-72
2022/05/15 13:01:47;;;;;;;5.30;3.03;;;30.00;45.70;;;;;;5204398;28;20899;-72
2022/05/15 13:04:26;;;;;;;4.03;2.53;;;29.90;45.60;;;;;;5202172;28;20060;-72
2022/05/15 13:06:59;;;;;;;5.00;2.97;;;29.90;46.50;;;;;;5206890;28;20511;-72
2022/05/15 13:09:31;;;;;;;5.70;3.08;;;29.90;46.20;;;;;;5205742;28;20040;-71
2022/05/15 13:12:04;;;;;;;9.73;3.30;;;29.90;45.90;;;;;;5199625;28;20056;-72
2022/05/15 13:14:46;;;;;;;4.78;3.05;;;30.00;45.40;;;;;;5203054;28;20390;-72
2022/05/15 13:17:34;;;;;;;3.30;2.90;;;29.80;45.10;;;;;;5208239;28;20048;-72
2022/05/15 13:20:13;;;;;;;5.72;2.97;;;29.60;45.80;;;;;;5202338;28;22136;-72
2022/05/15 13:22:48;;;;;;;10.93;3.35;;;29.80;45.70;;;;;;5204729;28;20037;-72
2022/05/15 13:25:33;;;;;;;5.63;3.00;;;29.90;45.10;;;;;;5203730;28;20040;-71
2022/05/15 13:28:08;;;;;;;9.82;3.33;;;30.10;46.00;;;;;;5207007;28;20041;-71
2022/05/15 13:30:41;;;;;;;4.75;2.60;;;30.00;44.80;;;;;;5204776;28;20061;-72
2022/05/15 13:33:19;;;;;;;5.57;2.90;;;29.80;45.40;;;;;;5204241;28;20049;-72
2022/05/15 13:35:55;;;;;;;5.72;2.90;;;29.80;44.50;;;;;;5205967;28;20065;-71
2022/05/15 13:43:17;;;;;;;8.38;3.08;;;30.10;45.20;;;;;;5204602;28;20080;-72
2022/05/15 13:44:27;;;;;;;5.20;2.90;;;30.20;44.80;;;;;;5207635;28;20041;-72
2022/05/15 13:47:02;;;;;;;5.75;2.80;;;30.30;44.10;;;;;;5187542;28;20987;-72
2022/05/15 13:49:47;;;;;;;7.93;2.88;;;30.30;44.20;;;;;;5200250;28;20053;-71
2022/05/15 13:52:30;;;;;;;4.15;2.60;;;30.60;45.30;;;;;;5199768;28;20512;-72
2022/05/15 13:55:13;;;;;;;4.63;2.72;;;30.60;44.60;;;;;;5205833;28;23961;-72
2022/05/15 13:57:55;;;;;;;7.38;3.00;;;30.60;44.20;;;;;;5205245;28;20048;-72
2022/05/15 14:00:30;;;;;;;4.55;3.25;;;30.60;43.90;;;;;;5207941;28;20517;-72
2022/05/15 14:03:05;;;;;;;6.40;3.15;;;30.40;43.60;;;;;;5205183;28;20048;-72